sensor_id;sensor_type;location;lat;lon;timestamp;noise_LAeq;noise_LA_min;noise_LA_max;noise_LA01;noise_LA95
48148;Laerm;29352;48.708;9.290;2023-03-14T00:02:25;49.70;46.45;51.96;;
48148;Laerm;29352;48.708;9.290;2023-03-14T00:04:54;49.78;45.36;51.96;;
48148;Laerm;29352;48.708;9.290;2023-03-14T00:07:21;50.08;46.69;52.47;;
48148;Laerm;29352;48.708;9.290;2023-03-14T00:09:46;50.06;46.91;53.39;;
48148;Laerm;29352;48.708;9.290;2023-03-14T00:12:12;50.01;46.20;52.53;;
48148;Laerm;29352;48.708;9.290;2023-03-14T00:14:39;49.79;46.69;54.73;;
48148;Laerm;29352;48.708;9.290;2023-03-14T00:17:06;49.71;45.36;52.03;;
48148;Laerm;29352;48.708;9.290;2023-03-14T00:19:31;49.76;46.20;52.53;;
48148;Laerm;29352;48.708;9.290;2023-03-14T00:21:57;49.60;46.20;51.88;;
48148;Laerm;29352;48.708;9.290;2023-03-14T00:24:22;49.47;46.20;51.82;;
48148;Laerm;29352;48.708;9.290;2023-03-14T00:26:48;49.37;45.66;51.89;;
48148;Laerm;29352;48.708;9.290;2023-03-14T00:29:13;49.40;46.45;51.75;;
48148;Laerm;29352;48.708;9.290;2023-03-14T00:31:38;49.61;46.20;52.03;;
48148;Laerm;29352;48.708;9.290;2023-03-14T00:34:04;49.50;45.94;51.68;;
48148;Laerm;29352;48.708;9.290;2023-03-14T00:36:30;49.40;46.20;51.68;;
48148;Laerm;29352;48.708;9.290;2023-03-14T00:38:55;49.50;46.20;52.16;;
48148;Laerm;29352;48.708;9.290;2023-03-14T00:41:23;49.15;45.36;51.53;;
48148;Laerm;29352;48.708;9.290;2023-03-14T00:43:50;49.24;45.36;62.82;;
48148;Laerm;29352;48.708;9.290;2023-03-14T00:46:18;49.25;45.94;51.68;;
48148;Laerm;29352;48.708;9.290;2023-03-14T00:48:47;49.16;45.36;51.41;;
48148;Laerm;29352;48.708;9.290;2023-03-14T00:51:13;49.18;46.20;51.82;;
48148;Laerm;29352;48.708;9.290;2023-03-14T00:53:41;49.37;44.69;52.03;;
48148;Laerm;29352;48.708;9.290;2023-03-14T00:56:11;49.33;45.66;52.29;;
48148;Laerm;29352;48.708;9.290;2023-03-14T00:58:37;49.40;45.36;51.96;;
48148;Laerm;29352;48.708;9.290;2023-03-14T01:01:09;49.22;45.94;51.75;;
48148;Laerm;29352;48.708;9.290;2023-03-14T01:03:35;49.19;46.20;51.75;;
48148;Laerm;29352;48.708;9.290;2023-03-14T01:06:15;49.11;45.66;51.61;;
48148;Laerm;29352;48.708;9.290;2023-03-14T01:08:42;49.16;45.66;51.82;;
48148;Laerm;29352;48.708;9.290;2023-03-14T01:11:16;49.17;45.66;51.75;;
48148;Laerm;29352;48.708;9.290;2023-03-14T01:13:42;49.17;45.36;52.35;;
48148;Laerm;29352;48.708;9.290;2023-03-14T01:16:11;49.42;45.66;52.22;;
48148;Laerm;29352;48.708;9.290;2023-03-14T01:18:39;49.27;45.66;51.82;;
48148;Laerm;29352;48.708;9.290;2023-03-14T01:21:26;49.30;45.94;51.89;;
48148;Laerm;29352;48.708;9.290;2023-03-14T01:23:55;49.14;44.69;51.89;;
48148;Laerm;29352;48.708;9.290;2023-03-14T01:26:25;49.40;45.66;51.96;;
48148;Laerm;29352;48.708;9.290;2023-03-14T01:28:54;49.39;45.36;51.75;;
48148;Laerm;29352;48.708;9.290;2023-03-14T01:31:19;49.12;45.66;51.61;;
48148;Laerm;29352;48.708;9.290;2023-03-14T01:33:46;49.15;45.94;54.45;;
48148;Laerm;29352;48.708;9.290;2023-03-14T01:36:12;49.16;45.04;51.61;;
48148;Laerm;29352;48.708;9.290;2023-03-14T01:38:39;49.08;45.66;51.61;;
48148;Laerm;29352;48.708;9.290;2023-03-14T01:41:08;49.47;45.66;52.29;;
48148;Laerm;29352;48.708;9.290;2023-03-14T01:43:37;49.40;45.31;52.16;;
48148;Laerm;29352;48.708;9.290;2023-03-14T01:46:25;49.09;45.04;52.16;;
48148;Laerm;29352;48.708;9.290;2023-03-14T01:48:59;48.84;45.04;51.75;;
48148;Laerm;29352;48.708;9.290;2023-03-14T01:51:42;49.00;45.36;51.75;;
48148;Laerm;29352;48.708;9.290;2023-03-14T01:54:23;48.91;45.36;51.53;;
48148;Laerm;29352;48.708;9.290;2023-03-14T01:57:08;49.04;45.36;51.75;;
48148;Laerm;29352;48.708;9.290;2023-03-14T01:59:39;48.86;45.04;51.22;;
48148;Laerm;29352;48.708;9.290;2023-03-14T02:02:12;48.93;45.36;51.68;;
48148;Laerm;29352;48.708;9.290;2023-03-14T02:04:40;49.10;45.04;52.03;;
48148;Laerm;29352;48.708;9.290;2023-03-14T02:07:15;48.92;45.36;51.22;;
48148;Laerm;29352;48.708;9.290;2023-03-14T02:09:43;48.85;44.31;51.61;;
48148;Laerm;29352;48.708;9.290;2023-03-14T02:12:14;48.82;45.36;51.38;;
48148;Laerm;29352;48.708;9.290;2023-03-14T02:14:40;48.77;45.04;51.22;;
48148;Laerm;29352;48.708;9.290;2023-03-14T02:17:08;48.79;45.36;51.22;;
48148;Laerm;29352;48.708;9.290;2023-03-14T02:19:50;48.80;45.66;51.38;;
48148;Laerm;29352;48.708;9.290;2023-03-14T02:22:20;48.87;45.66;51.38;;
48148;Laerm;29352;48.708;9.290;2023-03-14T02:25:13;48.85;45.66;51.68;;
48148;Laerm;29352;48.708;9.290;2023-03-14T02:27:39;49.22;45.66;51.30;;
48148;Laerm;29352;48.708;9.290;2023-03-14T02:30:12;49.33;46.45;57.40;;
48148;Laerm;29352;48.708;9.290;2023-03-14T02:32:48;49.90;47.12;51.96;;
48148;Laerm;29352;48.708;9.290;2023-03-14T02:35:22;50.40;47.88;52.35;;
48148;Laerm;29352;48.708;9.290;2023-03-14T02:37:53;50.83;48.67;52.65;;
48148;Laerm;29352;48.708;9.290;2023-03-14T02:40:20;50.92;48.67;52.76;;
48148;Laerm;29352;48.708;9.290;2023-03-14T02:42:46;51.07;48.81;52.88;;
48148;Laerm;29352;48.708;9.290;2023-03-14T02:47:43;51.91;50.03;53.90;;
48148;Laerm;29352;48.708;9.290;2023-03-14T02:50:16;52.20;50.43;53.77;;
48148;Laerm;29352;48.708;9.290;2023-03-14T02:52:43;52.22;50.53;53.81;;
48148;Laerm;29352;48.708;9.290;2023-03-14T02:55:09;52.23;50.23;53.72;;
48148;Laerm;29352;48.708;9.290;2023-03-14T02:57:34;52.07;50.43;53.34;;
48148;Laerm;29352;48.708;9.290;2023-03-14T03:00:02;51.93;50.53;53.34;;
48148;Laerm;29352;48.708;9.290;2023-03-14T03:02:31;51.99;50.71;53.19;;
48148;Laerm;29352;48.708;9.290;2023-03-14T03:04:57;51.95;50.53;53.09;;
48148;Laerm;29352;48.708;9.290;2023-03-14T03:07:24;52.25;50.71;67.07;;
48148;Laerm;29352;48.708;9.290;2023-03-14T03:09:49;52.24;50.71;53.63;;
48148;Laerm;29352;48.708;9.290;2023-03-14T03:12:15;52.26;50.89;54.11;;
48148;Laerm;29352;48.708;9.290;2023-03-14T03:14:40;52.44;50.98;62.37;;
48148;Laerm;29352;48.708;9.290;2023-03-14T03:17:07;52.78;51.14;60.36;;
48148;Laerm;29352;48.708;9.290;2023-03-14T03:19:33;52.59;51.30;55.39;;
48148;Laerm;29352;48.708;9.290;2023-03-14T03:21:59;52.63;51.38;53.81;;
48148;Laerm;29352;48.708;9.290;2023-03-14T03:24:26;52.91;51.38;53.90;;
48148;Laerm;29352;48.708;9.290;2023-03-14T03:26:52;53.03;52.09;54.11;;
48148;Laerm;29352;48.708;9.290;2023-03-14T03:29:17;53.07;51.96;54.07;;
48148;Laerm;29352;48.708;9.290;2023-03-14T03:31:43;53.29;52.16;54.23;;
48148;Laerm;29352;48.708;9.290;2023-03-14T03:34:14;53.40;52.35;55.14;;
48148;Laerm;29352;48.708;9.290;2023-03-14T03:36:40;53.43;52.41;54.43;;
48148;Laerm;29352;48.708;9.290;2023-03-14T03:39:07;53.39;52.22;54.39;;
48148;Laerm;29352;48.708;9.290;2023-03-14T03:41:33;53.14;52.16;54.11;;
48148;Laerm;29352;48.708;9.290;2023-03-14T03:43:59;53.08;52.03;55.27;;
48148;Laerm;29352;48.708;9.290;2023-03-14T03:46:25;52.93;51.75;54.15;;
48148;Laerm;29352;48.708;9.290;2023-03-14T03:48:59;53.11;51.96;54.11;;
48148;Laerm;29352;48.708;9.290;2023-03-14T03:51:26;53.15;52.09;54.23;;
48148;Laerm;29352;48.708;9.290;2023-03-14T03:53:51;53.12;51.82;54.15;;
48148;Laerm;29352;48.708;9.290;2023-03-14T03:56:17;53.22;52.03;54.19;;
48148;Laerm;29352;48.708;9.290;2023-03-14T03:58:43;53.31;52.22;54.15;;
48148;Laerm;29352;48.708;9.290;2023-03-14T04:01:10;53.30;52.16;54.62;;
48148;Laerm;29352;48.708;9.290;2023-03-14T04:03:38;53.23;52.16;54.97;;
48148;Laerm;29352;48.708;9.290;2023-03-14T04:06:13;53.38;52.29;54.62;;
48148;Laerm;29352;48.708;9.290;2023-03-14T04:08:39;53.42;52.29;54.27;;
48148;Laerm;29352;48.708;9.290;2023-03-14T04:11:06;53.51;52.41;54.97;;
48148;Laerm;29352;48.708;9.290;2023-03-14T04:13:31;53.52;52.35;54.87;;
48148;Laerm;29352;48.708;9.290;2023-03-14T04:15:57;53.57;52.35;54.87;;
48148;Laerm;29352;48.708;9.290;2023-03-14T04:18:25;53.61;52.22;55.48;;
48148;Laerm;29352;48.708;9.290;2023-03-14T04:20:55;53.80;52.53;55.83;;
48148;Laerm;29352;48.708;9.290;2023-03-14T04:23:23;53.78;52.65;57.26;;
48148;Laerm;29352;48.708;9.290;2023-03-14T04:25:53;53.76;52.47;56.45;;
48148;Laerm;29352;48.708;9.290;2023-03-14T04:28:19;53.73;52.59;56.02;;
48148;Laerm;29352;48.708;9.290;2023-03-14T04:30:45;53.65;52.47;61.87;;
48148;Laerm;29352;48.708;9.290;2023-03-14T04:33:10;53.61;52.47;57.63;;
48148;Laerm;29352;48.708;9.290;2023-03-14T04:35:38;53.67;52.53;57.28;;
48148;Laerm;29352;48.708;9.290;2023-03-14T04:38:04;53.60;52.59;57.04;;
48148;Laerm;29352;48.708;9.290;2023-03-14T04:40:29;53.48;52.35;54.42;;
48148;Laerm;29352;48.708;9.290;2023-03-14T04:42:55;53.44;52.53;54.35;;
48148;Laerm;29352;48.708;9.290;2023-03-14T04:45:20;53.47;52.41;54.54;;
48148;Laerm;29352;48.708;9.290;2023-03-14T04:47:46;53.50;52.41;56.38;;
48148;Laerm;29352;48.708;9.290;2023-03-14T04:50:11;53.45;52.16;54.87;;
48148;Laerm;29352;48.708;9.290;2023-03-14T04:52:37;53.50;52.53;54.76;;
48148;Laerm;29352;48.708;9.290;2023-03-14T04:55:02;53.56;52.47;55.48;;
48148;Laerm;29352;48.708;9.290;2023-03-14T04:57:28;53.53;52.29;58.23;;
48148;Laerm;29352;48.708;9.290;2023-03-14T04:59:53;53.52;52.41;55.86;;
48148;Laerm;29352;48.708;9.290;2023-03-14T05:02:19;53.50;52.35;57.22;;
48148;Laerm;29352;48.708;9.290;2023-03-14T05:04:44;53.43;52.35;55.63;;
48148;Laerm;29352;48.708;9.290;2023-03-14T05:07:10;53.47;52.47;57.18;;
48148;Laerm;29352;48.708;9.290;2023-03-14T05:09:35;53.67;52.35;56.35;;
48148;Laerm;29352;48.708;9.290;2023-03-14T05:12:01;53.75;52.65;58.81;;
48148;Laerm;29352;48.708;9.290;2023-03-14T05:14:26;53.67;52.59;56.57;;
48148;Laerm;29352;48.708;9.290;2023-03-14T05:16:52;53.74;52.71;60.43;;
48148;Laerm;29352;48.708;9.290;2023-03-14T05:19:17;53.83;52.65;58.55;;
48148;Laerm;29352;48.708;9.290;2023-03-14T05:21:42;53.79;52.65;57.73;;
48148;Laerm;29352;48.708;9.290;2023-03-14T05:24:08;53.81;52.59;60.47;;
48148;Laerm;29352;48.708;9.290;2023-03-14T05:26:33;53.81;52.79;62.44;;
48148;Laerm;29352;48.708;9.290;2023-03-14T05:28:59;53.76;52.65;55.97;;
48148;Laerm;29352;48.708;9.290;2023-03-14T05:31:24;53.74;52.71;59.33;;
48148;Laerm;29352;48.708;9.290;2023-03-14T05:33:49;53.70;52.71;56.97;;
48148;Laerm;29352;48.708;9.290;2023-03-14T05:36:15;53.69;52.76;54.83;;
48148;Laerm;29352;48.708;9.290;2023-03-14T05:38:40;53.78;52.65;54.90;;
48148;Laerm;29352;48.708;9.290;2023-03-14T05:41:06;53.88;52.82;55.60;;
48148;Laerm;29352;48.708;9.290;2023-03-14T05:43:31;54.00;52.88;63.59;;
48148;Laerm;29352;48.708;9.290;2023-03-14T05:45:57;54.03;52.82;59.11;;
48148;Laerm;29352;48.708;9.290;2023-03-14T05:48:22;54.02;53.04;57.68;;
48148;Laerm;29352;48.708;9.290;2023-03-14T05:50:48;54.03;52.93;55.30;;
48148;Laerm;29352;48.708;9.290;2023-03-14T05:53:14;54.06;53.04;55.14;;
48148;Laerm;29352;48.708;9.290;2023-03-14T05:55:40;54.07;52.98;55.75;;
48148;Laerm;29352;48.708;9.290;2023-03-14T05:58:06;54.03;52.82;54.97;;
48148;Laerm;29352;48.708;9.290;2023-03-14T06:00:32;54.03;53.09;55.39;;
48148;Laerm;29352;48.708;9.290;2023-03-14T06:02:57;54.02;52.93;56.52;;
48148;Laerm;29352;48.708;9.290;2023-03-14T06:05:23;54.06;53.04;56.69;;
48148;Laerm;29352;48.708;9.290;2023-03-14T06:07:48;54.06;53.09;54.97;;
48148;Laerm;29352;48.708;9.290;2023-03-14T06:10:14;54.12;52.88;56.66;;
48148;Laerm;29352;48.708;9.290;2023-03-14T06:12:39;54.07;53.09;55.11;;
48148;Laerm;29352;48.708;9.290;2023-03-14T06:15:05;54.05;52.98;55.86;;
48148;Laerm;29352;48.708;9.290;2023-03-14T06:17:31;54.08;53.04;55.60;;
48148;Laerm;29352;48.708;9.290;2023-03-14T06:19:56;54.13;52.98;58.07;;
48148;Laerm;29352;48.708;9.290;2023-03-14T06:22:22;54.13;52.98;56.30;;
48148;Laerm;29352;48.708;9.290;2023-03-14T06:24:47;54.11;53.09;55.45;;
48148;Laerm;29352;48.708;9.290;2023-03-14T06:27:13;54.15;53.14;59.90;;
48148;Laerm;29352;48.708;9.290;2023-03-14T06:29:38;54.22;53.09;55.80;;
48148;Laerm;29352;48.708;9.290;2023-03-14T06:32:04;54.23;53.04;55.69;;
48148;Laerm;29352;48.708;9.290;2023-03-14T06:34:30;54.21;52.88;56.45;;
48148;Laerm;29352;48.708;9.290;2023-03-14T06:36:55;54.22;53.19;55.27;;
48148;Laerm;29352;48.708;9.290;2023-03-14T06:39:21;54.21;53.29;55.20;;
48148;Laerm;29352;48.708;9.290;2023-03-14T06:41:46;54.24;53.19;55.75;;
48148;Laerm;29352;48.708;9.290;2023-03-14T06:44:12;54.24;53.24;55.72;;
48148;Laerm;29352;48.708;9.290;2023-03-14T06:46:37;54.24;53.24;55.42;;
48148;Laerm;29352;48.708;9.290;2023-03-14T06:49:02;54.29;53.29;56.50;;
48148;Laerm;29352;48.708;9.290;2023-03-14T06:51:28;54.38;53.34;55.66;;
48148;Laerm;29352;48.708;9.290;2023-03-14T06:53:53;54.42;53.09;56.97;;
48148;Laerm;29352;48.708;9.290;2023-03-14T06:56:19;54.37;53.19;55.48;;
48148;Laerm;29352;48.708;9.290;2023-03-14T06:58:44;54.37;53.19;55.51;;
48148;Laerm;29352;48.708;9.290;2023-03-14T07:01:30;54.41;53.34;55.42;;
48148;Laerm;29352;48.708;9.290;2023-03-14T07:03:57;54.42;53.29;55.42;;
48148;Laerm;29352;48.708;9.290;2023-03-14T07:06:24;54.42;53.24;55.48;;
48148;Laerm;29352;48.708;9.290;2023-03-14T07:08:50;54.36;53.34;55.42;;
48148;Laerm;29352;48.708;9.290;2023-03-14T07:11:17;54.36;53.19;55.42;;
48148;Laerm;29352;48.708;9.290;2023-03-14T07:13:42;54.41;53.39;55.54;;
48148;Laerm;29352;48.708;9.290;2023-03-14T07:16:08;54.41;53.29;55.72;;
48148;Laerm;29352;48.708;9.290;2023-03-14T07:18:34;54.40;53.09;55.75;;
48148;Laerm;29352;48.708;9.290;2023-03-14T07:20:59;54.34;53.19;55.54;;
48148;Laerm;29352;48.708;9.290;2023-03-14T07:23:25;54.30;53.29;55.30;;
48148;Laerm;29352;48.708;9.290;2023-03-14T07:25:50;54.32;53.34;55.23;;
48148;Laerm;29352;48.708;9.290;2023-03-14T07:28:17;54.32;53.19;55.42;;
48148;Laerm;29352;48.708;9.290;2023-03-14T07:30:42;54.29;53.09;55.27;;
48148;Laerm;29352;48.708;9.290;2023-03-14T07:33:08;54.27;53.19;55.27;;
48148;Laerm;29352;48.708;9.290;2023-03-14T07:35:33;54.27;53.19;55.28;;
48148;Laerm;29352;48.708;9.290;2023-03-14T07:37:59;54.25;53.19;55.33;;
48148;Laerm;29352;48.708;9.290;2023-03-14T07:40:24;54.16;53.04;55.36;;
48148;Laerm;29352;48.708;9.290;2023-03-14T07:42:50;54.13;52.76;55.17;;
48148;Laerm;29352;48.708;9.290;2023-03-14T07:45:15;54.15;52.93;55.17;;
48148;Laerm;29352;48.708;9.290;2023-03-14T07:47:41;54.13;52.71;55.27;;
48148;Laerm;29352;48.708;9.290;2023-03-14T07:50:08;54.07;52.65;55.07;;
48148;Laerm;29352;48.708;9.290;2023-03-14T07:52:33;54.10;53.04;55.14;;
48148;Laerm;29352;48.708;9.290;2023-03-14T07:54:59;54.10;52.88;55.17;;
48148;Laerm;29352;48.708;9.290;2023-03-14T07:57:25;54.14;52.93;55.23;;
48148;Laerm;29352;48.708;9.290;2023-03-14T07:59:50;54.09;53.09;55.11;;
48148;Laerm;29352;48.708;9.290;2023-03-14T08:02:16;53.95;52.65;55.07;;
48148;Laerm;29352;48.708;9.290;2023-03-14T08:04:42;53.79;52.41;54.90;;
48148;Laerm;29352;48.708;9.290;2023-03-14T08:07:07;53.76;52.59;68.92;;
48148;Laerm;29352;48.708;9.290;2023-03-14T08:09:33;53.66;52.59;54.94;;
48148;Laerm;29352;48.708;9.290;2023-03-14T08:11:58;53.63;52.35;55.27;;
48148;Laerm;29352;48.708;9.290;2023-03-14T08:14:24;53.60;52.53;55.27;;
48148;Laerm;29352;48.708;9.290;2023-03-14T08:16:50;53.59;52.53;56.78;;
48148;Laerm;29352;48.708;9.290;2023-03-14T08:19:16;53.59;52.59;55.01;;
48148;Laerm;29352;48.708;9.290;2023-03-14T08:21:42;53.72;52.47;56.13;;
48148;Laerm;29352;48.708;9.290;2023-03-14T08:24:08;53.70;52.58;56.06;;
48148;Laerm;29352;48.708;9.290;2023-03-14T08:26:33;53.59;52.59;54.87;;
48148;Laerm;29352;48.708;9.290;2023-03-14T08:28:59;53.52;52.16;55.33;;
48148;Laerm;29352;48.708;9.290;2023-03-14T08:31:24;53.48;52.29;54.58;;
48148;Laerm;29352;48.708;9.290;2023-03-14T08:33:50;53.46;52.41;54.73;;
48148;Laerm;29352;48.708;9.290;2023-03-14T08:36:19;53.46;52.41;54.43;;
48148;Laerm;29352;48.708;9.290;2023-03-14T08:38:45;53.51;52.22;54.62;;
48148;Laerm;29352;48.708;9.290;2023-03-14T08:41:10;53.45;52.16;54.51;;
48148;Laerm;29352;48.708;9.290;2023-03-14T08:43:36;53.46;52.29;54.43;;
48148;Laerm;29352;48.708;9.290;2023-03-14T08:46:03;53.38;52.29;54.62;;
48148;Laerm;29352;48.708;9.290;2023-03-14T08:48:29;53.35;52.03;54.35;;
48148;Laerm;29352;48.708;9.290;2023-03-14T08:51:25;53.38;51.89;54.35;;
48148;Laerm;29352;48.708;9.290;2023-03-14T08:53:50;53.29;51.82;54.39;;
48148;Laerm;29352;48.708;9.290;2023-03-14T08:56:16;53.21;51.89;54.19;;
48148;Laerm;29352;48.708;9.290;2023-03-14T08:58:42;53.13;51.89;54.23;;
48148;Laerm;29352;48.708;9.290;2023-03-14T09:01:10;53.16;51.68;54.35;;
48148;Laerm;29352;48.708;9.290;2023-03-14T09:03:36;53.19;51.89;54.27;;
48148;Laerm;29352;48.708;9.290;2023-03-14T09:06:07;53.23;51.89;54.27;;
48148;Laerm;29352;48.708;9.290;2023-03-14T09:08:35;53.17;51.89;54.35;;
48148;Laerm;29352;48.708;9.290;2023-03-14T09:11:00;53.15;52.03;54.15;;
48148;Laerm;29352;48.708;9.290;2023-03-14T09:13:26;53.17;52.00;54.23;;
48148;Laerm;29352;48.708;9.290;2023-03-14T09:15:53;53.16;51.82;54.35;;
48148;Laerm;29352;48.708;9.290;2023-03-14T09:18:19;53.16;52.09;56.07;;
48148;Laerm;29352;48.708;9.290;2023-03-14T09:20:44;53.17;51.82;54.27;;
48148;Laerm;29352;48.708;9.290;2023-03-14T09:23:10;53.10;51.82;54.35;;
48148;Laerm;29352;48.708;9.290;2023-03-14T09:25:35;53.04;51.68;54.03;;
48148;Laerm;29352;48.708;9.290;2023-03-14T09:28:00;53.07;51.68;54.47;;
48148;Laerm;29352;48.708;9.290;2023-03-14T09:30:26;53.13;51.89;54.15;;
48148;Laerm;29352;48.708;9.290;2023-03-14T09:32:51;53.06;51.82;54.11;;
48148;Laerm;29352;48.708;9.290;2023-03-14T09:35:17;53.05;51.75;54.07;;
48148;Laerm;29352;48.708;9.290;2023-03-14T09:37:42;53.03;51.75;54.03;;
48148;Laerm;29352;48.708;9.290;2023-03-14T09:40:14;53.02;51.61;54.80;;
48148;Laerm;29352;48.708;9.290;2023-03-14T09:42:40;52.98;51.68;54.03;;
48148;Laerm;29352;48.708;9.290;2023-03-14T09:45:38;53.09;51.89;54.39;;
48148;Laerm;29352;48.708;9.290;2023-03-14T09:48:15;53.06;51.68;54.19;;
48148;Laerm;29352;48.708;9.290;2023-03-14T09:50:48;53.05;51.81;54.03;;
48148;Laerm;29352;48.708;9.290;2023-03-14T09:53:20;53.03;51.82;54.07;;
48148;Laerm;29352;48.708;9.290;2023-03-14T09:55:50;53.02;51.82;54.31;;
48148;Laerm;29352;48.708;9.290;2023-03-14T09:58:24;53.04;51.89;54.07;;
48148;Laerm;29352;48.708;9.290;2023-03-14T10:00:52;53.06;51.96;54.19;;
48148;Laerm;29352;48.708;9.290;2023-03-14T10:03:41;53.08;51.75;54.19;;
48148;Laerm;29352;48.708;9.290;2023-03-14T10:06:13;53.09;51.75;54.19;;
48148;Laerm;29352;48.708;9.290;2023-03-14T10:08:44;53.11;51.75;54.11;;
48148;Laerm;29352;48.708;9.290;2023-03-14T10:11:19;53.13;51.82;54.19;;
48148;Laerm;29352;48.708;9.290;2023-03-14T10:14:09;53.17;52.03;54.15;;
48148;Laerm;29352;48.708;9.290;2023-03-14T10:16:46;53.23;52.09;54.35;;
48148;Laerm;29352;48.708;9.290;2023-03-14T10:19:15;53.33;52.09;54.51;;
48148;Laerm;29352;48.708;9.290;2023-03-14T10:21:44;53.40;52.06;54.47;;
48148;Laerm;29352;48.708;9.290;2023-03-14T10:24:27;53.48;52.22;54.43;;
48148;Laerm;29352;48.708;9.290;2023-03-14T10:27:23;53.39;52.22;54.51;;
48148;Laerm;29352;48.708;9.290;2023-03-14T10:29:59;53.35;51.75;54.54;;
48148;Laerm;29352;48.708;9.290;2023-03-14T10:32:37;53.29;52.03;54.23;;
48148;Laerm;29352;48.708;9.290;2023-03-14T10:37:59;53.27;52.09;54.35;;
48148;Laerm;29352;48.708;9.290;2023-03-14T10:40:39;53.23;52.03;54.27;;
48148;Laerm;29352;48.708;9.290;2023-03-14T10:43:13;53.25;52.09;54.39;;
48148;Laerm;29352;48.708;9.290;2023-03-14T10:45:44;53.27;51.96;54.56;;
48148;Laerm;29352;48.708;9.290;2023-03-14T10:48:32;53.27;52.22;54.31;;
48148;Laerm;29352;48.708;9.290;2023-03-14T10:51:11;53.24;52.03;54.47;;
48148;Laerm;29352;48.708;9.290;2023-03-14T10:54:03;53.21;52.09;54.54;;
48148;Laerm;29352;48.708;9.290;2023-03-14T10:56:37;53.19;52.03;55.42;;
48148;Laerm;29352;48.708;9.290;2023-03-14T10:59:07;53.18;52.16;54.90;;
48148;Laerm;29352;48.708;9.290;2023-03-14T11:01:55;53.18;52.09;54.31;;
48148;Laerm;29352;48.708;9.290;2023-03-14T11:07:30;53.21;51.89;54.31;;
48148;Laerm;29352;48.708;9.290;2023-03-14T11:13:12;53.25;51.89;54.27;;
48148;Laerm;29352;48.708;9.290;2023-03-14T11:16:09;53.30;52.09;54.54;;
48148;Laerm;29352;48.708;9.290;2023-03-14T11:27:18;53.41;52.29;54.31;;
48148;Laerm;29352;48.708;9.290;2023-03-14T11:30:18;53.57;52.58;54.62;;
48148;Laerm;29352;48.708;9.290;2023-03-14T11:33:02;53.66;52.65;54.69;;
48148;Laerm;29352;48.708;9.290;2023-03-14T11:35:40;55.74;52.03;73.63;;
48148;Laerm;29352;48.708;9.290;2023-03-14T11:38:34;54.20;51.75;61.49;;
48148;Laerm;29352;48.708;9.290;2023-03-14T11:41:01;54.27;53.28;55.36;;
48148;Laerm;29352;48.708;9.290;2023-03-14T11:43:39;54.35;53.24;55.48;;
48148;Laerm;29352;48.708;9.290;2023-03-14T11:46:32;54.35;53.28;55.39;;
48148;Laerm;29352;48.708;9.290;2023-03-14T11:51:46;53.99;51.96;55.23;;
48148;Laerm;29352;48.708;9.290;2023-03-14T11:57:29;54.35;53.14;55.42;;
48148;Laerm;29352;48.708;9.290;2023-03-14T12:00:17;54.37;53.39;55.33;;
48148;Laerm;29352;48.708;9.290;2023-03-14T12:06:24;54.34;53.29;55.36;;
48148;Laerm;29352;48.708;9.290;2023-03-14T12:08:56;54.32;53.34;55.34;;
48148;Laerm;29352;48.708;9.290;2023-03-14T12:11:33;54.31;53.29;55.27;;
48148;Laerm;29352;48.708;9.290;2023-03-14T12:14:02;54.29;53.24;55.39;;
48148;Laerm;29352;48.708;9.290;2023-03-14T12:16:38;54.30;53.24;55.23;;
48148;Laerm;29352;48.708;9.290;2023-03-14T12:19:36;54.30;53.09;55.36;;
48148;Laerm;29352;48.708;9.290;2023-03-14T12:22:35;54.31;53.14;55.39;;
48148;Laerm;29352;48.708;9.290;2023-03-14T12:35:40;54.32;53.19;55.45;;
48148;Laerm;29352;48.708;9.290;2023-03-14T12:38:18;54.28;53.29;55.30;;
48148;Laerm;29352;48.708;9.290;2023-03-14T12:41:21;54.19;52.82;55.23;;
48148;Laerm;29352;48.708;9.290;2023-03-14T12:43:49;54.10;53.04;55.27;;
48148;Laerm;29352;48.708;9.290;2023-03-14T12:49:05;53.94;52.82;63.19;;
48148;Laerm;29352;48.708;9.290;2023-03-14T12:51:42;53.81;52.53;54.83;;
48148;Laerm;29352;48.708;9.290;2023-03-14T12:57:30;53.75;52.53;54.80;;
48148;Laerm;29352;48.708;9.290;2023-03-14T13:00:23;53.76;52.53;54.80;;
48148;Laerm;29352;48.708;9.290;2023-03-14T13:02:49;53.73;52.35;63.63;;
48148;Laerm;29352;48.708;9.290;2023-03-14T13:05:24;53.49;51.89;68.35;;
48148;Laerm;29352;48.708;9.290;2023-03-14T13:12:53;53.10;51.89;54.19;;
48148;Laerm;29352;48.708;9.290;2023-03-14T13:15:53;53.03;51.75;54.11;;
48148;Laerm;29352;48.708;9.290;2023-03-14T13:18:41;52.98;51.75;54.03;;
48148;Laerm;29352;48.708;9.290;2023-03-14T13:21:18;52.93;51.75;53.90;;
48148;Laerm;29352;48.708;9.290;2023-03-14T13:24:05;52.94;51.53;54.11;;
48148;Laerm;29352;48.708;9.290;2023-03-14T13:26:38;52.96;51.61;54.07;;
48148;Laerm;29352;48.708;9.290;2023-03-14T13:29:22;52.87;51.30;54.03;;
48148;Laerm;29352;48.708;9.290;2023-03-14T13:31:52;52.81;51.38;53.86;;
48148;Laerm;29352;48.708;9.290;2023-03-14T13:34:19;52.80;51.30;53.86;;
48148;Laerm;29352;48.708;9.290;2023-03-14T13:36:45;52.76;51.30;53.94;;
48148;Laerm;29352;48.708;9.290;2023-03-14T13:39:17;52.77;51.30;54.07;;
48148;Laerm;29352;48.708;9.290;2023-03-14T13:41:44;52.81;51.46;53.90;;
48148;Laerm;29352;48.708;9.290;2023-03-14T13:44:23;52.76;51.22;54.15;;
48148;Laerm;29352;48.708;9.290;2023-03-14T13:46:50;52.77;51.30;53.94;;
48148;Laerm;29352;48.708;9.290;2023-03-14T13:49:25;52.74;51.38;53.94;;
48148;Laerm;29352;48.708;9.290;2023-03-14T13:51:51;52.72;51.38;53.86;;
48148;Laerm;29352;48.708;9.290;2023-03-14T13:54:20;52.72;51.14;54.03;;
48148;Laerm;29352;48.708;9.290;2023-03-14T13:56:47;52.73;51.46;53.86;;
48148;Laerm;29352;48.708;9.290;2023-03-14T13:59:29;52.73;51.53;53.94;;
48148;Laerm;29352;48.708;9.290;2023-03-14T14:01:59;52.73;51.38;53.81;;
48148;Laerm;29352;48.708;9.290;2023-03-14T14:04:26;52.65;51.38;53.99;;
48148;Laerm;29352;48.708;9.290;2023-03-14T14:06:57;52.59;51.22;53.68;;
48148;Laerm;29352;48.708;9.290;2023-03-14T14:09:38;52.55;50.80;53.85;;
48148;Laerm;29352;48.708;9.290;2023-03-14T14:12:28;52.52;51.06;53.90;;
48148;Laerm;29352;48.708;9.290;2023-03-14T14:15:21;52.53;50.62;53.77;;
48148;Laerm;29352;48.708;9.290;2023-03-14T14:18:00;52.52;50.98;53.68;;
48148;Laerm;29352;48.708;9.290;2023-03-14T14:20:35;52.52;51.14;53.58;;
48148;Laerm;29352;48.708;9.290;2023-03-14T14:23:32;52.48;51.06;53.72;;
48148;Laerm;29352;48.708;9.290;2023-03-14T14:25:59;52.46;50.98;53.58;;
48148;Laerm;29352;48.708;9.290;2023-03-14T14:28:30;52.47;50.98;53.54;;
48148;Laerm;29352;48.708;9.290;2023-03-14T14:33:45;52.47;51.03;53.77;;
48148;Laerm;29352;48.708;9.290;2023-03-14T14:36:26;52.45;50.98;53.58;;
48148;Laerm;29352;48.708;9.290;2023-03-14T14:39:04;52.49;50.80;53.63;;
48148;Laerm;29352;48.708;9.290;2023-03-14T14:41:34;52.48;51.06;53.72;;
48148;Laerm;29352;48.708;9.290;2023-03-14T14:44:04;52.44;50.89;53.54;;
48148;Laerm;29352;48.708;9.290;2023-03-14T14:46:34;52.44;51.14;53.60;;
48148;Laerm;29352;48.708;9.290;2023-03-14T14:49:14;52.44;50.89;53.55;;
48148;Laerm;29352;48.708;9.290;2023-03-14T14:51:47;52.44;50.89;53.54;;
48148;Laerm;29352;48.708;9.290;2023-03-14T14:54:18;52.46;50.89;53.54;;
48148;Laerm;29352;48.708;9.290;2023-03-14T14:56:53;52.47;51.14;53.86;;